createdAt,value
2019-05-10T00:00:20.725Z,100699.83
2019-05-10T00:03:10.126Z,100696.38
2019-05-10T00:06:00.520Z,100697.75
2019-05-10T00:08:47.714Z,100696.03
2019-05-10T00:11:26.097Z,100699.91
2019-05-10T00:14:05.277Z,100704.25
2019-05-10T00:16:43.250Z,100706.12
2019-05-10T00:19:14.661Z,100704.37
2019-05-10T00:21:46.179Z,100703.47
2019-05-10T00:24:17.746Z,100700.92
2019-05-10T00:26:49.382Z,100699.01
2019-05-10T00:29:20.961Z,100700.34
2019-05-10T00:31:52.375Z,100698.27
2019-05-10T00:34:23.895Z,100697.33
2019-05-10T00:36:59.939Z,100702.88
2019-05-10T00:39:33.430Z,100695.19
2019-05-10T00:42:04.835Z,100697.33
2019-05-10T00:44:36.252Z,100699.75
2019-05-10T00:47:07.680Z,100691.20
2019-05-10T00:49:39.205Z,100694.55
2019-05-10T00:52:10.772Z,100697.33
2019-05-10T00:54:43.881Z,100689.86
2019-05-10T00:57:16.625Z,100685.64
2019-05-10T00:59:48.112Z,100680.28
2019-05-10T01:02:19.721Z,100679.69
2019-05-10T01:04:52.708Z,100692.86
2019-05-10T01:07:24.299Z,100697.63
2019-05-10T01:09:55.850Z,100689.39
2019-05-10T01:12:27.358Z,100680.90
2019-05-10T01:14:58.980Z,100676.48
2019-05-10T01:17:31.510Z,100677.42
2019-05-10T01:20:03.112Z,100680.55
2019-05-10T01:22:34.642Z,100686.73
2019-05-10T01:25:08.053Z,100691.89
2019-05-10T01:27:39.604Z,100697.87
2019-05-10T01:30:11.481Z,100688.26
2019-05-10T01:32:43.059Z,100687.05
2019-05-10T01:35:14.572Z,100689.98
2019-05-10T01:37:46.136Z,100688.22
2019-05-10T01:40:18.713Z,100682.55
2019-05-10T01:42:50.407Z,100688.38
2019-05-10T01:45:23.029Z,100692.64
2019-05-10T01:47:54.559Z,100701.44
2019-05-10T01:50:26.107Z,100707.02
2019-05-10T01:52:57.585Z,100703.51
2019-05-10T01:55:29.133Z,100715.00
2019-05-10T01:58:00.663Z,100720.98
2019-05-10T02:00:32.201Z,100718.01
2019-05-10T02:03:03.732Z,100721.61
2019-05-10T02:05:35.329Z,100710.19
2019-05-10T02:08:08.003Z,100718.95
2019-05-10T02:10:40.992Z,100714.61
2019-05-10T02:13:12.505Z,100729.48
2019-05-10T02:15:45.052Z,100716.69
2019-05-10T02:18:16.615Z,100716.79
2019-05-10T02:20:48.157Z,100721.91
2019-05-10T02:23:19.606Z,100719.95
2019-05-10T02:26:07.221Z,100730.53
2019-05-10T02:28:27.777Z,100738.61
2019-05-10T02:30:58.493Z,100735.73
2019-05-10T02:33:29.761Z,100748.78
2019-05-10T02:36:02.364Z,100745.30
2019-05-10T02:38:37.200Z,100755.31
2019-05-10T02:41:08.017Z,100766.67
2019-05-10T02:43:39.217Z,100766.31
2019-05-10T02:46:10.675Z,100768.88
2019-05-10T02:48:42.230Z,100771.31
2019-05-10T02:51:13.767Z,100766.27
2019-05-10T02:53:45.319Z,100773.38
2019-05-10T02:56:29.982Z,100777.44
2019-05-10T02:58:50.954Z,100767.95
2019-05-10T03:01:25.630Z,100767.37
2019-05-10T03:04:01.060Z,100764.02
2019-05-10T03:06:35.300Z,100769.92
2019-05-10T03:09:08.568Z,100777.27
2019-05-10T03:11:47.970Z,100776.84
2019-05-10T03:14:22.917Z,100778.32
2019-05-10T03:16:54.438Z,100776.72
2019-05-10T03:19:27.369Z,100783.64
2019-05-10T03:22:08.784Z,100789.41
2019-05-10T03:24:40.306Z,100797.94
2019-05-10T03:27:11.813Z,100804.80
2019-05-10T03:29:43.350Z,100797.12
2019-05-10T03:32:14.874Z,100801.28
2019-05-10T03:34:46.347Z,100798.80
2019-05-10T03:37:17.882Z,100803.80
2019-05-10T03:39:49.475Z,100799.46
2019-05-10T03:42:21.891Z,100802.51
2019-05-10T03:44:53.426Z,100807.56
2019-05-10T03:47:24.951Z,100805.44
2019-05-10T03:49:57.454Z,100801.79
2019-05-10T03:52:29.065Z,100805.99
2019-05-10T03:55:00.675Z,100806.23
2019-05-10T03:57:32.159Z,100803.02
2019-05-10T04:00:05.145Z,100807.02
2019-05-10T04:02:36.591Z,100809.44
2019-05-10T04:05:08.437Z,100806.11
2019-05-10T04:07:40.953Z,100805.30
2019-05-10T04:10:13.137Z,100800.22
2019-05-10T04:12:44.621Z,100802.52
2019-05-10T04:15:16.250Z,100802.63
2019-05-10T04:17:50.357Z,100794.54
2019-05-10T04:20:22.195Z,100802.49
2019-05-10T04:22:53.631Z,100805.59
2019-05-10T04:25:25.132Z,100809.06
2019-05-10T04:27:56.694Z,100805.20
2019-05-10T04:30:31.678Z,100805.33
2019-05-10T04:33:01.589Z,100811.51
2019-05-10T04:35:33.088Z,100810.00
2019-05-10T04:38:05.573Z,100814.31
2019-05-10T04:40:37.064Z,100821.30
2019-05-10T04:43:08.575Z,100812.80
2019-05-10T04:45:40.093Z,100813.75
2019-05-10T04:48:12.464Z,100817.74
2019-05-10T04:50:48.579Z,100820.80
2019-05-10T04:53:17.291Z,100823.45
2019-05-10T04:55:48.807Z,100820.66
2019-05-10T04:58:20.357Z,100823.25
2019-05-10T05:00:53.455Z,100819.34
2019-05-10T05:03:24.955Z,100821.44
2019-05-10T05:05:56.523Z,100820.72
2019-05-10T05:08:29.033Z,100822.26
2019-05-10T05:11:00.576Z,100822.25
2019-05-10T05:13:33.135Z,100826.45
2019-05-10T05:16:04.784Z,100827.08
2019-05-10T05:18:36.340Z,100829.71
2019-05-10T05:21:07.846Z,100834.59
2019-05-10T05:23:39.357Z,100833.58
2019-05-10T05:26:10.898Z,100837.83
2019-05-10T05:28:42.386Z,100842.29
2019-05-10T05:31:14.962Z,100840.02
2019-05-10T05:33:47.427Z,100837.32
2019-05-10T05:36:19.003Z,100841.37
2019-05-10T05:38:50.608Z,100843.08
2019-05-10T05:41:22.171Z,100848.33
2019-05-10T05:43:53.731Z,100849.09
2019-05-10T05:46:28.236Z,100839.98
2019-05-10T05:48:59.795Z,100837.28
2019-05-10T05:51:32.572Z,100824.64
2019-05-10T05:54:06.263Z,100810.33
2019-05-10T05:56:37.789Z,100816.00
2019-05-10T05:59:09.285Z,100812.23
2019-05-10T06:01:40.920Z,100809.00
2019-05-10T06:04:15.007Z,100802.56
2019-05-10T06:06:46.539Z,100795.48
2019-05-10T06:09:18.152Z,100792.98
2019-05-10T06:11:50.151Z,100787.27
2019-05-10T06:14:22.702Z,100794.92
2019-05-10T06:16:55.434Z,100795.98
2019-05-10T06:19:32.509Z,100799.84
2019-05-10T06:22:06.963Z,100801.55
2019-05-10T06:24:38.861Z,100797.77
2019-05-10T06:27:10.479Z,100799.41
2019-05-10T06:29:43.177Z,100797.73
2019-05-10T06:32:16.013Z,100787.33
2019-05-10T06:34:47.570Z,100793.36
2019-05-10T06:37:20.214Z,100792.87
2019-05-10T06:39:51.736Z,100789.64
2019-05-10T06:42:23.243Z,100793.15
2019-05-10T06:45:05.009Z,100796.41
2019-05-10T06:47:32.859Z,100797.02
2019-05-10T06:50:06.332Z,100800.34
2019-05-10T06:52:37.956Z,100792.70
2019-05-10T06:55:10.615Z,100789.47
2019-05-10T06:57:43.214Z,100782.13
2019-05-10T07:00:16.965Z,100780.86
2019-05-10T07:02:51.799Z,100788.98
2019-05-10T07:05:23.400Z,100795.44
2019-05-10T07:08:00.490Z,100794.02
2019-05-10T07:10:33.846Z,100803.31
2019-05-10T07:13:03.805Z,100808.08
2019-05-10T07:15:42.181Z,100805.08
2019-05-10T07:18:16.758Z,100802.85
2019-05-10T07:20:45.979Z,100796.91
2019-05-10T07:23:17.640Z,100792.66
2019-05-10T07:25:49.138Z,100787.78
2019-05-10T07:28:20.781Z,100785.70
2019-05-10T07:30:53.354Z,100788.16
2019-05-10T07:33:24.965Z,100793.42
2019-05-10T07:35:56.610Z,100786.63
2019-05-10T07:38:30.966Z,100793.00
2019-05-10T07:41:03.131Z,100792.04
2019-05-10T07:43:35.503Z,100779.98
2019-05-10T07:46:09.032Z,100778.95
2019-05-10T07:48:47.311Z,100784.68
2019-05-10T07:51:15.092Z,100781.05
2019-05-10T07:53:51.504Z,100780.38
2019-05-10T07:56:23.028Z,100785.37
2019-05-10T07:58:54.588Z,100776.86
2019-05-10T08:01:32.296Z,100780.11
2019-05-10T08:03:59.454Z,100776.78
2019-05-10T08:06:44.386Z,100782.37
2019-05-10T08:09:09.762Z,100775.14
2019-05-10T08:11:41.474Z,100778.75
2019-05-10T08:14:14.342Z,100786.15
2019-05-10T08:16:51.877Z,100787.42
2019-05-10T08:19:19.215Z,100783.75
2019-05-10T08:22:00.841Z,100785.33
2019-05-10T08:24:32.818Z,100787.73
2019-05-10T08:27:11.502Z,100780.78
2019-05-10T08:29:38.475Z,100785.30
2019-05-10T08:32:12.677Z,100775.39
2019-05-10T08:34:52.106Z,100775.45
2019-05-10T08:37:30.411Z,100770.95
2019-05-10T08:39:55.974Z,100781.48
2019-05-10T08:42:40.809Z,100777.31
2019-05-10T08:45:05.301Z,100784.92
2019-05-10T08:47:34.737Z,100793.28
2019-05-10T08:50:20.587Z,100784.91
2019-05-10T08:52:42.390Z,100784.25
2019-05-10T08:55:15.201Z,100782.59
2019-05-10T08:57:49.031Z,100796.19
2019-05-10T09:00:38.281Z,100787.86
2019-05-10T09:02:53.753Z,100785.87
2019-05-10T09:05:28.839Z,100786.66
2019-05-10T09:08:04.842Z,100780.68
2019-05-10T09:10:33.176Z,100775.78
2019-05-10T09:13:06.469Z,100767.88
2019-05-10T09:15:43.254Z,100766.90
2019-05-10T09:18:12.789Z,100766.41
2019-05-10T09:20:45.405Z,100772.69
2019-05-10T09:23:20.073Z,100779.12
2019-05-10T09:25:52.097Z,100779.94
2019-05-10T09:28:26.297Z,100771.30
2019-05-10T09:31:06.653Z,100761.14
2019-05-10T09:33:33.195Z,100766.50
2019-05-10T09:36:06.051Z,100762.97
2019-05-10T09:38:40.389Z,100759.06
2019-05-10T09:41:13.256Z,100753.14
2019-05-10T09:43:48.909Z,100755.70
2019-05-10T09:46:23.776Z,100753.64
2019-05-10T09:49:05.987Z,100750.33
2019-05-10T09:51:31.000Z,100751.18
2019-05-10T09:54:03.583Z,100752.36
2019-05-10T09:56:39.618Z,100740.17
2019-05-10T09:59:09.611Z,100747.77
2019-05-10T10:01:42.293Z,100743.08
2019-05-10T10:04:20.452Z,100744.73
2019-05-10T10:06:53.777Z,100742.54
2019-05-10T10:09:33.727Z,100736.25
2019-05-10T10:12:02.830Z,100734.86
2019-05-10T10:14:37.770Z,100735.80
2019-05-10T10:17:05.244Z,100730.64
2019-05-10T10:19:40.639Z,100732.48
2019-05-10T10:22:14.978Z,100738.28
2019-05-10T10:24:55.192Z,100722.15
2019-05-10T10:27:26.026Z,100719.84
2019-05-10T10:29:57.775Z,100726.08
2019-05-10T10:32:31.592Z,100707.69
2019-05-10T10:35:02.667Z,100706.99
2019-05-10T10:37:37.665Z,100710.34
2019-05-10T10:40:09.873Z,100709.33
2019-05-10T10:42:43.189Z,100717.44
2019-05-10T10:45:17.344Z,100706.22
2019-05-10T10:47:49.251Z,100717.75
2019-05-10T10:50:21.660Z,100709.64
2019-05-10T10:52:57.604Z,100707.09
2019-05-10T10:55:40.417Z,100712.92
2019-05-10T10:58:12.318Z,100711.05
2019-05-10T11:00:43.870Z,100714.19
2019-05-10T11:03:16.538Z,100722.38
2019-05-10T11:05:48.092Z,100720.83
2019-05-10T11:08:22.039Z,100720.92
2019-05-10T11:10:54.551Z,100717.77
2019-05-10T11:13:41.587Z,100712.92
2019-05-10T11:16:09.652Z,100714.95
2019-05-10T11:18:33.113Z,100704.92
2019-05-10T11:21:05.651Z,100701.72
2019-05-10T11:23:39.164Z,100690.81
2019-05-10T11:26:10.927Z,100689.18
2019-05-10T11:28:44.471Z,100694.36
2019-05-10T11:31:15.996Z,100700.14
2019-05-10T11:33:53.614Z,100689.34
2019-05-10T11:36:21.703Z,100698.34
2019-05-10T11:38:58.502Z,100695.10
2019-05-10T11:41:26.331Z,100691.28
2019-05-10T11:44:04.216Z,100688.30
2019-05-10T11:46:32.560Z,100686.05
2019-05-10T11:49:10.661Z,100690.95
2019-05-10T11:51:41.331Z,100683.02
2019-05-10T11:54:15.162Z,100690.81
2019-05-10T11:56:52.266Z,100686.38
2019-05-10T11:59:33.869Z,100683.64
2019-05-10T12:02:10.387Z,100673.16
2019-05-10T12:04:45.332Z,100673.66
2019-05-10T12:07:27.380Z,100674.66
2019-05-10T12:10:08.408Z,100668.98
2019-05-10T12:12:50.153Z,100673.02
2019-05-10T12:15:25.501Z,100672.19
2019-05-10T12:17:59.674Z,100664.67
2019-05-10T12:23:13.469Z,100670.02
2019-05-10T12:25:53.043Z,100666.08
2019-05-10T12:26:05.557Z,100671.72
2019-05-10T12:28:15.425Z,100664.89
2019-05-10T12:30:47.265Z,100661.27
2019-05-10T12:33:24.975Z,100656.63
2019-05-10T12:35:55.713Z,100647.70
2019-05-10T12:38:29.737Z,100636.71
2019-05-10T12:41:01.363Z,100651.16
2019-05-10T12:43:33.288Z,100634.14
2019-05-10T12:46:05.879Z,100639.03
2019-05-10T12:48:37.359Z,100639.25
2019-05-10T12:51:12.659Z,100632.69
2019-05-10T12:53:47.716Z,100630.00
2019-05-10T12:56:16.176Z,100620.24
2019-05-10T12:58:56.842Z,100615.23
2019-05-10T13:01:25.420Z,100629.97
2019-05-10T13:03:55.006Z,100619.11
2019-05-10T13:09:38.759Z,100620.11
2019-05-10T13:12:03.860Z,100607.19
2019-05-10T13:14:31.529Z,100616.42
2019-05-10T13:17:03.896Z,100613.40
2019-05-10T13:19:37.704Z,100612.96
2019-05-10T13:22:11.300Z,100617.08
2019-05-10T13:24:46.286Z,100606.30
2019-05-10T13:27:19.332Z,100612.27
2019-05-10T13:29:53.773Z,100615.25
2019-05-10T13:32:28.343Z,100608.77
2019-05-10T13:35:07.560Z,100612.28
2019-05-10T13:37:40.195Z,100609.62
2019-05-10T13:40:11.786Z,100602.69
2019-05-10T13:42:45.813Z,100603.71
2019-05-10T13:45:17.682Z,100606.56
2019-05-10T13:47:49.381Z,100601.79
2019-05-10T13:50:23.377Z,100606.22
2019-05-10T13:52:55.889Z,100602.08
2019-05-10T13:55:27.980Z,100591.98
2019-05-10T13:57:59.647Z,100597.73
2019-05-10T14:00:34.043Z,100604.66
2019-05-10T14:03:11.217Z,100596.17
2019-05-10T14:05:40.116Z,100605.62
2019-05-10T14:08:12.694Z,100609.64
2019-05-10T14:10:44.188Z,100609.64
2019-05-10T14:13:16.781Z,100610.95
2019-05-10T14:15:50.606Z,100599.75
2019-05-10T14:18:22.343Z,100601.15
2019-05-10T14:20:53.987Z,100608.45
2019-05-10T14:23:28.793Z,100603.63
2019-05-10T14:25:59.000Z,100599.21
2019-05-10T14:28:30.683Z,100596.33
2019-05-10T14:31:02.150Z,100591.53
2019-05-10T14:33:33.931Z,100588.81
2019-05-10T14:36:05.544Z,100601.45
2019-05-10T14:38:37.180Z,100607.23
2019-05-10T14:41:10.715Z,100599.81
2019-05-10T14:43:47.289Z,100606.19
2019-05-10T14:46:20.873Z,100611.91
2019-05-10T14:49:08.882Z,100604.88
2019-05-10T14:51:44.303Z,100608.93
2019-05-10T14:54:09.875Z,100612.11
2019-05-10T14:56:41.672Z,100612.96
2019-05-10T14:59:13.272Z,100618.22
2019-05-10T15:01:45.642Z,100614.66
2019-05-10T15:04:43.911Z,100605.84
2019-05-10T15:06:52.248Z,100607.61
2019-05-10T15:09:25.374Z,100608.75
2019-05-10T15:11:57.109Z,100605.31
2019-05-10T15:14:30.503Z,100613.15
2019-05-10T15:17:02.168Z,100610.39
2019-05-10T15:19:34.649Z,100614.48
2019-05-10T15:22:06.172Z,100610.45
2019-05-10T15:24:37.711Z,100616.56
2019-05-10T15:27:09.291Z,100616.41
2019-05-10T15:29:41.822Z,100611.81
2019-05-10T15:32:15.617Z,100606.34
2019-05-10T15:35:04.143Z,100605.19
2019-05-10T15:37:23.363Z,100609.80
2019-05-10T15:39:54.898Z,100607.78
2019-05-10T15:42:30.534Z,100610.27
2019-05-10T15:45:05.078Z,100603.86
2019-05-10T15:47:49.901Z,100600.14
2019-05-10T15:50:14.205Z,100603.78
2019-05-10T15:52:47.039Z,100605.66
2019-05-10T15:55:26.859Z,100608.93
2019-05-10T15:57:57.469Z,100599.93
2019-05-10T16:00:38.091Z,100598.31
2019-05-10T16:02:59.839Z,100590.75
2019-05-10T16:05:42.919Z,100596.20
2019-05-10T16:08:04.880Z,100592.56
2019-05-10T16:10:46.308Z,100583.50
2019-05-10T16:13:24.945Z,100590.18
2019-05-10T16:15:59.576Z,100584.42
2019-05-10T16:18:33.289Z,100585.87
2019-05-10T16:21:09.798Z,100579.44
2019-05-10T16:23:41.385Z,100581.06
2019-05-10T16:26:17.484Z,100583.64
2019-05-10T16:29:01.060Z,100580.59
2019-05-10T16:31:28.457Z,100586.83
2019-05-10T16:34:03.102Z,100588.80
2019-05-10T16:36:38.328Z,100582.89
2019-05-10T16:39:11.165Z,100589.84
2019-05-10T16:41:42.595Z,100577.72
2019-05-10T16:44:14.141Z,100583.07
2019-05-10T16:46:49.069Z,100588.94
2019-05-10T16:49:21.775Z,100586.19
2019-05-10T16:51:53.197Z,100589.65
2019-05-10T16:54:27.385Z,100589.61
2019-05-10T16:57:00.082Z,100590.28
2019-05-10T16:59:35.166Z,100593.11
2019-05-10T17:02:07.410Z,100587.47
2019-05-10T17:04:39.801Z,100594.75
2019-05-10T17:07:13.073Z,100588.87
2019-05-10T17:09:49.473Z,100592.20
2019-05-10T17:12:22.020Z,100595.78
2019-05-10T17:14:56.282Z,100597.80
2019-05-10T17:17:36.466Z,100597.72
2019-05-10T17:20:07.532Z,100599.23
2019-05-10T17:22:39.627Z,100606.26
2019-05-10T17:25:12.473Z,100607.18
2019-05-10T17:27:43.949Z,100603.68
2019-05-10T17:30:15.815Z,100608.37
2019-05-10T17:32:47.236Z,100607.17
2019-05-10T17:35:19.865Z,100615.44
2019-05-10T17:37:53.027Z,100618.73
2019-05-10T17:40:24.815Z,100612.77
2019-05-10T17:42:56.433Z,100609.86
2019-05-10T17:45:34.909Z,100605.59
2019-05-10T17:48:08.691Z,100605.48
2019-05-10T17:50:36.987Z,100611.40
2019-05-10T17:53:09.514Z,100606.59
2019-05-10T17:55:40.968Z,100606.52
2019-05-10T17:58:12.679Z,100607.05
2019-05-10T18:00:45.697Z,100604.27
2019-05-10T18:03:19.752Z,100603.81
2019-05-10T18:05:56.569Z,100607.93
2019-05-10T18:08:29.441Z,100611.55
2019-05-10T18:11:03.790Z,100607.39
2019-05-10T18:13:35.641Z,100605.37
2019-05-10T18:16:09.515Z,100612.27
2019-05-10T18:18:46.911Z,100605.83
2019-05-10T18:21:22.184Z,100616.03
2019-05-10T18:23:52.574Z,100607.83
2019-05-10T18:26:23.420Z,100610.50
2019-05-10T18:28:55.128Z,100615.65
2019-05-10T18:31:26.747Z,100610.37
2019-05-10T18:34:00.016Z,100610.76
2019-05-10T18:36:50.543Z,100607.70
2019-05-10T18:39:09.249Z,100610.17
2019-05-10T18:41:41.375Z,100613.98
2019-05-10T18:44:14.571Z,100607.08
2019-05-10T18:46:46.844Z,100615.89
2019-05-10T18:49:18.372Z,100611.61
2019-05-10T18:51:49.982Z,100618.17
2019-05-10T18:54:21.543Z,100616.37
2019-05-10T18:56:53.071Z,100614.85
2019-05-10T18:59:24.581Z,100609.14
2019-05-10T19:01:56.051Z,100615.80
2019-05-10T19:04:29.673Z,100610.70
2019-05-10T19:07:09.847Z,100619.69
2019-05-10T19:09:34.613Z,100613.17
2019-05-10T19:12:18.043Z,100617.69
2019-05-10T19:14:40.441Z,100621.16
2019-05-10T19:17:11.975Z,100618.47
2019-05-10T19:19:43.526Z,100622.80
2019-05-10T19:22:15.079Z,100623.37
2019-05-10T19:24:46.629Z,100622.84
2019-05-10T19:27:18.153Z,100625.02
2019-05-10T19:29:49.685Z,100626.35
2019-05-10T19:32:21.273Z,100632.94
2019-05-10T19:34:57.343Z,100631.30
2019-05-10T19:37:30.116Z,100626.13
2019-05-10T19:39:59.253Z,100626.16
2019-05-10T19:42:31.730Z,100627.99
2019-05-10T19:45:04.175Z,100627.74
2019-05-10T19:47:35.974Z,100631.30
2019-05-10T19:50:08.023Z,100635.45
2019-05-10T19:52:39.583Z,100631.27
2019-05-10T19:55:12.987Z,100635.52
2019-05-10T19:57:49.417Z,100640.44
2019-05-10T20:00:19.317Z,100645.61
2019-05-10T20:02:50.801Z,100640.44
2019-05-10T20:05:22.349Z,100642.50
2019-05-10T20:07:53.811Z,100633.26
2019-05-10T20:10:25.326Z,100638.83
2019-05-10T20:12:56.780Z,100637.97
2019-05-10T20:15:28.309Z,100640.83
2019-05-10T20:18:00.912Z,100643.24
2019-05-10T20:20:33.684Z,100651.91
2019-05-10T20:23:05.259Z,100652.42
2019-05-10T20:25:36.802Z,100655.92
2019-05-10T20:28:08.259Z,100654.12
2019-05-10T20:30:39.789Z,100652.88
2019-05-10T20:33:11.273Z,100656.45
2019-05-10T20:35:42.767Z,100660.20
2019-05-10T20:38:14.283Z,100656.81
2019-05-10T20:40:47.849Z,100658.22
2019-05-10T20:43:19.327Z,100659.48
2019-05-10T20:45:50.782Z,100662.30
2019-05-10T20:48:22.432Z,100674.48
2019-05-10T20:50:53.907Z,100677.67
2019-05-10T20:53:25.470Z,100674.03
2019-05-10T20:55:56.979Z,100678.74
2019-05-10T20:58:29.517Z,100677.20
2019-05-10T21:01:01.055Z,100677.92
2019-05-10T21:03:32.595Z,100675.02
2019-05-10T21:06:05.179Z,100679.01
2019-05-10T21:08:36.731Z,100691.41
2019-05-10T21:11:08.235Z,100691.06
2019-05-10T21:13:39.741Z,100698.32
2019-05-10T21:16:11.248Z,100700.30
2019-05-10T21:18:42.794Z,100698.31
2019-05-10T21:21:14.347Z,100708.23
2019-05-10T21:23:45.862Z,100712.22
2019-05-10T21:26:17.388Z,100714.75
2019-05-10T21:28:48.968Z,100717.20
2019-05-10T21:31:20.483Z,100720.06
2019-05-10T21:34:08.304Z,100717.31
2019-05-10T21:36:26.223Z,100719.84
2019-05-10T21:38:57.728Z,100724.23
2019-05-10T21:41:32.287Z,100734.11
2019-05-10T21:44:03.916Z,100728.66
2019-05-10T21:46:37.326Z,100728.23
2019-05-10T21:49:08.923Z,100732.77
2019-05-10T21:51:41.437Z,100729.91
2019-05-10T21:54:12.849Z,100727.63
2019-05-10T21:56:45.352Z,100726.59
2019-05-10T21:59:17.864Z,100719.71
2019-05-10T22:01:49.395Z,100725.42
2019-05-10T22:04:20.890Z,100722.23
2019-05-10T22:06:53.445Z,100732.35
2019-05-10T22:09:24.838Z,100730.24
2019-05-10T22:11:59.358Z,100722.38
2019-05-10T22:14:29.492Z,100722.63
2019-05-10T22:17:01.940Z,100730.87
2019-05-10T22:19:34.845Z,100724.75
2019-05-10T22:22:06.241Z,100729.95
2019-05-10T22:24:41.625Z,100741.27
2019-05-10T22:27:12.966Z,100735.95
2019-05-10T22:29:44.799Z,100733.01
2019-05-10T22:32:16.270Z,100732.41
2019-05-10T22:34:47.702Z,100733.80
2019-05-10T22:37:20.217Z,100732.66
2019-05-10T22:39:51.704Z,100734.12
2019-05-10T22:42:23.112Z,100730.08
2019-05-10T22:44:54.573Z,100734.55
2019-05-10T22:47:26.039Z,100730.52
2019-05-10T22:49:57.456Z,100733.52
2019-05-10T22:52:28.858Z,100731.52
2019-05-10T22:55:00.854Z,100731.86
2019-05-10T22:57:33.450Z,100732.61
2019-05-10T23:00:09.405Z,100735.75
2019-05-10T23:02:42.378Z,100741.44
2019-05-10T23:05:13.768Z,100739.38
2019-05-10T23:07:45.177Z,100737.22
2019-05-10T23:10:17.033Z,100739.63
2019-05-10T23:12:48.454Z,100735.39
2019-05-10T23:15:19.887Z,100736.33
2019-05-10T23:17:51.410Z,100738.27
2019-05-10T23:20:22.838Z,100735.16
2019-05-10T23:22:54.300Z,100735.14
2019-05-10T23:25:26.818Z,100729.39
2019-05-10T23:27:58.252Z,100731.67
2019-05-10T23:30:29.739Z,100729.95
2019-05-10T23:33:02.196Z,100733.80
2019-05-10T23:35:34.106Z,100736.33
2019-05-10T23:38:06.560Z,100736.47
2019-05-10T23:40:37.990Z,100729.95
2019-05-10T23:43:09.387Z,100724.06
2019-05-10T23:45:40.769Z,100721.67
2019-05-10T23:48:12.092Z,100729.47
2019-05-10T23:50:43.430Z,100734.45
2019-05-10T23:53:15.051Z,100731.27
2019-05-10T23:55:46.509Z,100731.14
2019-05-10T23:58:17.964Z,100732.60
